createdAt,value
2022-09-20T00:03:04.051Z,12.40
2022-09-20T00:08:10.709Z,12.40
2022-09-20T00:13:14.192Z,12.40
2022-09-20T00:18:17.972Z,12.40
2022-09-20T00:23:20.697Z,12.40
2022-09-20T00:28:23.094Z,12.50
2022-09-20T00:33:27.853Z,12.60
2022-09-20T00:38:30.256Z,12.70
2022-09-20T00:43:38.129Z,12.90
2022-09-20T00:48:42.719Z,13.10
2022-09-20T00:53:49.425Z,13.20
2022-09-20T00:58:58.290Z,13.30
2022-09-20T01:04:03.722Z,13.40
2022-09-20T01:09:06.989Z,13.50
2022-09-20T01:14:09.798Z,13.50
2022-09-20T01:19:24.540Z,13.60
2022-09-20T01:24:38.330Z,13.70
2022-09-20T01:30:13.301Z,13.80
2022-09-20T01:35:19.486Z,13.80
2022-09-20T01:40:29.944Z,13.80
2022-09-20T01:45:33.080Z,13.70
2022-09-20T01:50:52.754Z,13.70
2022-09-20T01:56:25.175Z,13.60
2022-09-20T02:02:02.320Z,13.60
2022-09-20T02:07:30.446Z,13.50
2022-09-20T02:12:51.764Z,13.50
2022-09-20T02:18:07.434Z,13.50
2022-09-20T02:23:24.084Z,13.50
2022-09-20T02:28:40.350Z,13.50
2022-09-20T02:34:03.753Z,13.50
2022-09-20T02:39:14.015Z,13.50
2022-09-20T02:44:25.142Z,13.50
2022-09-20T02:49:35.287Z,13.40
2022-09-20T02:54:52.090Z,13.40
2022-09-20T03:00:01.294Z,13.30
2022-09-20T03:05:14.517Z,13.30
2022-09-20T03:10:27.988Z,13.20
2022-09-20T03:15:40.630Z,13.20
2022-09-20T03:20:57.335Z,13.10
2022-09-20T03:26:16.223Z,13.10
2022-09-20T03:31:29.470Z,13.00
2022-09-20T03:37:03.237Z,13.00
2022-09-20T03:42:14.887Z,13.00
2022-09-20T03:47:31.317Z,13.00
2022-09-20T03:53:01.052Z,13.10
2022-09-20T03:58:20.837Z,13.10
2022-09-20T04:03:35.699Z,13.20
2022-09-20T04:09:09.017Z,13.30
2022-09-20T04:14:22.324Z,13.40
2022-09-20T04:19:33.080Z,13.40
2022-09-20T04:24:40.921Z,13.50
2022-09-20T04:29:47.417Z,13.50
2022-09-20T04:34:59.798Z,13.50
2022-09-20T04:40:25.436Z,13.50
2022-09-20T04:46:02.352Z,13.50
2022-09-20T04:51:40.276Z,13.50
2022-09-20T04:57:03.040Z,13.50
2022-09-20T05:02:44.023Z,13.60
2022-09-20T05:08:09.454Z,13.60
2022-09-20T05:13:20.869Z,13.70
2022-09-20T05:19:01.035Z,13.70
2022-09-20T05:24:20.026Z,13.60
2022-09-20T05:29:31.920Z,13.60
2022-09-20T05:34:44.119Z,13.50
2022-09-20T05:39:51.347Z,13.50
2022-09-20T05:45:03.182Z,13.50
2022-09-20T05:50:32.719Z,13.60
2022-09-20T05:55:59.887Z,13.60
2022-09-20T06:01:05.946Z,13.70
2022-09-20T06:06:15.553Z,13.80
2022-09-20T06:11:40.720Z,13.90
2022-09-20T06:16:54.076Z,14.00
2022-09-20T06:22:03.698Z,14.00
2022-09-20T06:27:13.054Z,14.20
2022-09-20T06:32:19.670Z,14.30
2022-09-20T06:37:44.736Z,14.40
2022-09-20T06:42:47.901Z,14.50
2022-09-20T06:47:50.244Z,14.50
2022-09-20T06:52:54.112Z,14.60
2022-09-20T06:57:56.917Z,14.60
2022-09-20T07:03:00.274Z,14.60
2022-09-20T07:08:04.787Z,14.70
2022-09-20T07:13:07.633Z,14.90
2022-09-20T07:18:10.052Z,15.20
2022-09-20T07:23:14.222Z,15.60
2022-09-20T07:28:16.952Z,15.90
2022-09-20T07:33:19.449Z,16.30
2022-09-20T07:38:24.243Z,17.00
2022-09-20T07:43:30.284Z,17.50
2022-09-20T07:48:35.778Z,17.80
2022-09-20T07:53:40.612Z,17.80
2022-09-20T07:58:44.375Z,17.80
2022-09-20T08:03:49.227Z,17.70
2022-09-20T08:08:53.204Z,17.70
2022-09-20T08:14:12.831Z,17.80
2022-09-20T08:19:17.073Z,18.10
2022-09-20T08:24:22.080Z,19.00
2022-09-20T08:29:25.482Z,20.20
2022-09-20T08:34:29.289Z,21.20
2022-09-20T08:45:03.054Z,21.50
2022-09-20T08:50:10.173Z,21.30
2022-09-20T08:55:19.740Z,21.00
2022-09-20T09:00:25.959Z,20.50
2022-09-20T09:05:34.611Z,20.20
2022-09-20T09:10:43.382Z,19.80
2022-09-20T09:15:53.417Z,19.60
2022-09-20T09:20:55.828Z,19.50
2022-09-20T09:26:05.151Z,19.60
2022-09-20T09:31:22.886Z,20.10
2022-09-20T09:36:27.030Z,20.50
2022-09-20T09:41:32.371Z,21.00
2022-09-20T09:46:37.811Z,21.40
2022-09-20T09:51:40.277Z,21.60
2022-09-20T09:56:55.107Z,21.50
2022-09-20T10:02:12.065Z,21.30
2022-09-20T10:07:23.499Z,21.10
2022-09-20T10:12:43.630Z,21.10
2022-09-20T10:17:56.738Z,21.30
2022-09-20T10:28:48.220Z,22.00
2022-09-20T10:34:03.038Z,22.00
2022-09-20T10:39:14.290Z,22.00
2022-09-20T10:44:37.157Z,22.10
2022-09-20T10:49:50.747Z,22.70
2022-09-20T10:55:10.649Z,23.50
2022-09-20T11:00:22.016Z,24.30
2022-09-20T11:05:36.359Z,24.80
2022-09-20T11:10:44.633Z,25.10
2022-09-20T11:15:54.229Z,25.30
2022-09-20T11:21:00.894Z,25.40
2022-09-20T11:26:11.459Z,25.60
2022-09-20T11:31:25.415Z,25.80
2022-09-20T11:36:34.858Z,25.80
2022-09-20T11:41:37.797Z,25.50
2022-09-20T11:46:49.610Z,25.00
2022-09-20T11:52:16.609Z,24.40
2022-09-20T11:57:19.498Z,23.80
2022-09-20T12:02:28.221Z,23.40
2022-09-20T12:07:36.403Z,23.00
2022-09-20T12:12:43.845Z,23.00
2022-09-20T12:18:12.694Z,23.50
2022-09-20T12:23:47.104Z,24.10
2022-09-20T12:28:52.233Z,24.80
2022-09-20T12:34:02.715Z,25.10
2022-09-20T12:39:21.627Z,25.20
2022-09-20T12:44:35.409Z,25.10
2022-09-20T12:49:50.585Z,24.80
2022-09-20T12:54:56.332Z,24.30
2022-09-20T13:00:05.078Z,23.70
2022-09-20T13:05:33.446Z,23.20
2022-09-20T13:10:41.600Z,22.90
2022-09-20T13:15:50.469Z,22.70
2022-09-20T13:20:57.215Z,22.50
2022-09-20T13:26:01.154Z,22.50
2022-09-20T13:31:25.923Z,22.40
2022-09-20T13:36:31.078Z,22.40
2022-09-20T13:41:33.683Z,22.40
2022-09-20T13:46:44.970Z,22.40
2022-09-20T13:51:49.836Z,22.40
2022-09-20T13:56:52.905Z,22.30
2022-09-20T14:01:57.581Z,22.20
2022-09-20T14:07:06.598Z,22.20
2022-09-20T14:12:11.382Z,22.10
2022-09-20T14:17:17.641Z,22.20
2022-09-20T14:22:25.871Z,22.20
2022-09-20T14:27:29.257Z,22.10
2022-09-20T14:32:38.940Z,22.10
2022-09-20T14:37:46.789Z,22.10
2022-09-20T14:42:53.669Z,22.10
2022-09-20T14:47:59.170Z,22.10
2022-09-20T14:53:25.892Z,22.10
2022-09-20T14:58:28.112Z,22.20
2022-09-20T15:03:33.709Z,22.20
2022-09-20T15:08:42.879Z,22.00
2022-09-20T15:13:49.072Z,21.70
2022-09-20T15:18:51.879Z,21.40
2022-09-20T15:23:56.902Z,21.30
2022-09-20T15:28:59.723Z,21.00
2022-09-20T15:34:07.390Z,20.90
2022-09-20T15:39:15.919Z,20.80
2022-09-20T15:44:20.762Z,20.70
2022-09-20T15:49:23.733Z,20.60
2022-09-20T15:54:28.340Z,20.40
2022-09-20T15:59:30.901Z,20.20
2022-09-20T16:04:33.765Z,20.00
2022-09-20T16:09:37.938Z,19.80
2022-09-20T16:14:41.003Z,19.50
2022-09-20T16:19:43.643Z,19.30
2022-09-20T16:24:49.184Z,19.10
2022-09-20T16:29:51.655Z,18.90
2022-09-20T16:34:54.532Z,18.70
2022-09-20T16:39:59.344Z,18.50
2022-09-20T16:45:01.866Z,18.40
2022-09-20T16:50:04.770Z,18.30
2022-09-20T16:55:10.790Z,18.10
2022-09-20T17:00:15.127Z,18.10
2022-09-20T17:05:20.530Z,17.90
2022-09-20T17:10:27.321Z,17.80
2022-09-20T17:15:30.173Z,17.70
2022-09-20T17:20:35.280Z,17.50
2022-09-20T17:25:40.254Z,17.30
2022-09-20T17:30:49.268Z,17.20
2022-09-20T17:36:00.977Z,17.00
2022-09-20T17:41:13.321Z,16.80
2022-09-20T17:46:18.925Z,16.60
2022-09-20T17:51:23.634Z,16.40
2022-09-20T17:56:28.663Z,16.20
2022-09-20T18:01:33.193Z,16.10
2022-09-20T18:06:37.698Z,15.90
2022-09-20T18:11:43.554Z,15.80
2022-09-20T18:16:45.950Z,15.60
2022-09-20T18:21:48.726Z,15.40
2022-09-20T18:26:53.023Z,15.30
2022-09-20T18:31:55.878Z,15.10
2022-09-20T18:37:00.237Z,15.00
2022-09-20T18:42:09.469Z,14.90
2022-09-20T18:47:12.010Z,14.70
2022-09-20T18:52:14.480Z,14.60
2022-09-20T18:57:20.825Z,14.50
2022-09-20T19:02:50.224Z,14.40
2022-09-20T19:08:26.915Z,14.30
2022-09-20T19:13:41.287Z,14.20
2022-09-20T19:19:09.881Z,14.00
2022-09-20T19:24:23.116Z,13.90
2022-09-20T19:29:31.530Z,13.80
2022-09-20T19:34:35.230Z,13.70
2022-09-20T19:40:02.856Z,13.60
2022-09-20T19:45:43.619Z,13.50
2022-09-20T19:51:24.804Z,13.50
2022-09-20T19:56:29.166Z,13.40
2022-09-20T20:01:37.627Z,13.30
2022-09-20T20:12:50.143Z,13.20
2022-09-20T20:18:00.468Z,13.10
2022-09-20T20:23:36.272Z,13.00
2022-09-20T20:28:39.124Z,12.90
2022-09-20T20:33:43.478Z,12.80
2022-09-20T20:38:48.743Z,12.80
2022-09-20T20:43:53.817Z,12.70
2022-09-20T20:49:00.342Z,12.60
2022-09-20T20:54:05.952Z,12.50
2022-09-20T20:59:08.526Z,12.50
2022-09-20T21:04:13.474Z,12.40
2022-09-20T21:09:15.913Z,12.30
2022-09-20T21:14:18.250Z,12.20
2022-09-20T21:19:22.672Z,12.10
2022-09-20T21:24:26.962Z,12.10
2022-09-20T21:29:29.931Z,12.00
2022-09-20T21:34:34.224Z,11.90
2022-09-20T21:39:36.657Z,11.90
2022-09-20T21:44:39.214Z,11.80
2022-09-20T21:49:43.104Z,11.80
2022-09-20T21:54:45.813Z,11.70
2022-09-20T21:59:48.116Z,11.70
2022-09-20T22:04:54.662Z,11.60
2022-09-20T22:09:58.693Z,11.50
2022-09-20T22:15:01.093Z,11.50
2022-09-20T22:20:06.823Z,11.40
2022-09-20T22:25:10.301Z,11.30
2022-09-20T22:30:13.556Z,11.30
2022-09-20T22:35:18.568Z,11.20
2022-09-20T22:40:20.990Z,11.20
2022-09-20T22:45:23.593Z,11.10
2022-09-20T22:50:28.668Z,11.00
2022-09-20T22:55:32.359Z,11.00
2022-09-20T23:00:34.643Z,10.90
2022-09-20T23:05:41.323Z,10.90
2022-09-20T23:10:43.831Z,10.80
2022-09-20T23:15:48.248Z,10.70
2022-09-20T23:21:00.752Z,10.70
2022-09-20T23:26:08.720Z,10.70
2022-09-20T23:31:14.208Z,10.60
2022-09-20T23:36:19.075Z,10.50
2022-09-20T23:41:25.776Z,10.50
2022-09-20T23:46:28.706Z,10.40
2022-09-20T23:51:32.992Z,10.40
2022-09-20T23:56:35.643Z,10.40
